Great — TCYV6 — position and weather

sailwx.info

Track history (hours):
 
Tides and Currents Weather Stations Pressure Air Temp Water Temp Dewpoint Dewpoint Depression Visibility Wind Speed Wind Dir Waves Ship Positions

Great

Last reported at 2014-Jul-30 00:28 UTC. Time now 2014-Jul-31 23:52 UTC.
Position N 44°27' E 035°45'.

Length 187 m; draft 6.2 m.

Type: Cargo ship. MMSI: 271042241.

Date/timePositionNaut miles runAvg speedWind from/ knotsBaromVisibWave heightAir tempDewpointWater temp
2014-Jul-30 00:28N 44°27' E 035°45'910.3
2014-Jul-29 23:33N 44°22' E 035°35'1010.4
2014-Jul-29 22:33N 44°16' E 035°23'3411.0
2014-Jul-29 19:27N 43°58' E 034°42'26810.6
2014-Jul-28 18:16N 41°28' E 029°39'811.6
2014-Jul-28 17:33N 41°24' E 029°30'192 6.6
2014-Jul-27 12:19N 39°49' E 025°50'911.1
2014-Jul-27 11:32N 39°41' E 025°45'5511.2
2014-Jul-27 06:33N 38°52' E 025°13'8011.4
2014-Jul-26 23:33N 37°40' E 024°29'4611.5
2014-Jul-26 19:32N 37°04' E 023°52'1611.7
2014-Jul-26 18:10N 36°52' E 023°40'43211.1
2014-Jul-25 03:24N 36°37' E 014°41'1012.3
2014-Jul-25 02:33N 36°42' E 014°30'1212.2
2014-Jul-25 01:33N 36°48' E 014°16'1211.8
2014-Jul-25 00:33N 36°53' E 014°03'1211.6
2014-Jul-24 23:33N 36°58' E 013°50'1111.4
2014-Jul-24 22:33N 37°03' E 013°37'2311.5
2014-Jul-24 20:33N 37°12' E 013°11'1211.8
2014-Jul-24 19:33N 37°18' E 012°58'1211.9
2014-Jul-24 18:30N 37°23' E 012°43'37811.7
2014-Jul-23 10:19N 38°46' E 004°55'2612.0
2014-Jul-23 08:08N 38°50' E 004°22'711.0
2014-Jul-23 07:31N 38°51' E 004°13'1511.5
2014-Jul-23 06:13N 38°53' E 003°54'811.8
2014-Jul-23 05:33N 38°54' E 003°44'1311.8
2014-Jul-23 04:29N 38°56' E 003°28'1111.8
2014-Jul-23 03:33N 38°57' E 003°14'1211.7
2014-Jul-23 02:33N 38°58' E 002°59'1211.6
2014-Jul-23 01:33N 39°02' E 002°45'1211.6
2014-Jul-23 00:34N 39°07' E 002°31'1111.4
2014-Jul-22 23:33N 39°11' E 002°18'1111.3
2014-Jul-22 22:33N 39°16' E 002°04'1211.4
2014-Jul-22 21:31N 39°20' E 001°50'1211.8
2014-Jul-22 20:29N 39°25' E 001°36'1211.8
2014-Jul-22 19:27N 39°30' E 001°21'1311.6
2014-Jul-22 18:22N 39°35' E 001°07'55 2.9
2014-Jul-21 23:05N 39°58' E 000°02'0 0.0
2014-Jul-21 22:30N 39°58' E 000°02'0 0.0
2014-Jul-20 21:17N 39°58' E 000°02'0 0.1
2014-Jul-20 20:31N 39°58' E 000°02'  
Track history (hours):
 
Tides and Currents Weather Stations Pressure Air Temp Water Temp Dewpoint Dewpoint Depression Visibility Wind Speed Wind Dir Waves Ship Positions

Great

Last reported at 2014-Jul-30 00:28 UTC. Time now 2014-Jul-31 23:52 UTC.
Position N 44°27' E 035°45'.

Length 187 m; draft 6.2 m.

Type: Cargo ship. MMSI: 271042241.

Date/timePositionNaut miles runAvg speedWind from/ knotsBaromVisibWave heightAir tempDewpointWater temp
2014-Jul-30 00:28N 44°27' E 035°45'910.3
2014-Jul-29 23:33N 44°22' E 035°35'1010.4
2014-Jul-29 22:33N 44°16' E 035°23'3411.0
2014-Jul-29 19:27N 43°58' E 034°42'26810.6
2014-Jul-28 18:16N 41°28' E 029°39'811.6
2014-Jul-28 17:33N 41°24' E 029°30'192 6.6
2014-Jul-27 12:19N 39°49' E 025°50'911.1
2014-Jul-27 11:32N 39°41' E 025°45'5511.2
2014-Jul-27 06:33N 38°52' E 025°13'8011.4
2014-Jul-26 23:33N 37°40' E 024°29'4611.5
2014-Jul-26 19:32N 37°04' E 023°52'1611.7
2014-Jul-26 18:10N 36°52' E 023°40'43211.1
2014-Jul-25 03:24N 36°37' E 014°41'1012.3
2014-Jul-25 02:33N 36°42' E 014°30'1212.2
2014-Jul-25 01:33N 36°48' E 014°16'1211.8
2014-Jul-25 00:33N 36°53' E 014°03'1211.6
2014-Jul-24 23:33N 36°58' E 013°50'1111.4
2014-Jul-24 22:33N 37°03' E 013°37'2311.5
2014-Jul-24 20:33N 37°12' E 013°11'1211.8
2014-Jul-24 19:33N 37°18' E 012°58'1211.9
2014-Jul-24 18:30N 37°23' E 012°43'37811.7
2014-Jul-23 10:19N 38°46' E 004°55'2612.0
2014-Jul-23 08:08N 38°50' E 004°22'711.0
2014-Jul-23 07:31N 38°51' E 004°13'1511.5
2014-Jul-23 06:13N 38°53' E 003°54'811.8
2014-Jul-23 05:33N 38°54' E 003°44'1311.8
2014-Jul-23 04:29N 38°56' E 003°28'1111.8
2014-Jul-23 03:33N 38°57' E 003°14'1211.7
2014-Jul-23 02:33N 38°58' E 002°59'1211.6
2014-Jul-23 01:33N 39°02' E 002°45'1211.6
2014-Jul-23 00:34N 39°07' E 002°31'1111.4
2014-Jul-22 23:33N 39°11' E 002°18'1111.3
2014-Jul-22 22:33N 39°16' E 002°04'1211.4
2014-Jul-22 21:31N 39°20' E 001°50'1211.8
2014-Jul-22 20:29N 39°25' E 001°36'1211.8
2014-Jul-22 19:27N 39°30' E 001°21'1311.6
2014-Jul-22 18:22N 39°35' E 001°07'55 2.9
2014-Jul-21 23:05N 39°58' E 000°02'0 0.0
2014-Jul-21 22:30N 39°58' E 000°02'0 0.0
2014-Jul-20 21:17N 39°58' E 000°02'0 0.1
2014-Jul-20 20:31N 39°58' E 000°02'  

Dump ship's entire track history